Time;durP1;ratioP1;P1;durP2;ratioP2;P2;SDS_P1;SDS_P2;PMS_P1;PMS_P2;Temp;Humidity;BMP_temperature;BMP_pressure;BME280_temperature;BME280_humidity;BME280_pressure;Samples;Min_cycle;Max_cycle;Signal;HPM_P1;HPM_P2
2023/08/30 00:01:11;;;;;;;14.60;10.10;;;;;;;-128.00;-1.00;-1.00;105636;1251;1004364;-79
2023/08/30 00:03:37;;;;;;;15.20;10.90;;;;;;;-128.00;-1.00;-1.00;105696;1250;1003802;-79
2023/08/30 00:06:04;;;;;;;13.00;9.00;;;;;;;-128.00;-1.00;-1.00;105797;1250;1004882;-80
2023/08/30 00:08:32;;;;;;;16.00;8.90;;;;;;;-128.00;-1.00;-1.00;105744;1250;1004659;-80
2023/08/30 00:10:58;;;;;;;10.40;8.60;;;;;;;-128.00;-1.00;-1.00;105641;1250;1004534;-80
2023/08/30 00:13:26;;;;;;;11.50;9.10;;;;;;;-128.00;-1.00;-1.00;105651;1250;1004858;-80
2023/08/30 00:15:52;;;;;;;11.10;8.50;;;;;;;-128.00;-1.00;-1.00;105624;1251;1004249;-80
2023/08/30 00:18:19;;;;;;;14.40;10.40;;;;;;;-128.00;-1.00;-1.00;105646;1251;1004318;-80
2023/08/30 00:20:45;;;;;;;15.10;10.70;;;;;;;-128.00;-1.00;-1.00;105742;1250;1003704;-80
2023/08/30 00:23:12;;;;;;;12.90;9.80;;;;;;;-128.00;-1.00;-1.00;105691;1250;1004548;-80
2023/08/30 00:25:38;;;;;;;14.00;9.50;;;;;;;-128.00;-1.00;-1.00;105623;1251;1003612;-80
2023/08/30 00:28:06;;;;;;;16.90;11.50;;;;;;;-128.00;-1.00;-1.00;105609;1250;1004988;-80
2023/08/30 00:30:33;;;;;;;19.40;12.90;;;;;;;-128.00;-1.00;-1.00;105751;1251;1003659;-80
2023/08/30 00:32:59;;;;;;;13.90;10.30;;;;;;;-128.00;-1.00;-1.00;105600;1250;1004351;-80
2023/08/30 00:35:25;;;;;;;14.50;9.90;;;;;;;-128.00;-1.00;-1.00;105610;1250;1004794;-80
2023/08/30 00:37:52;;;;;;;18.80;10.50;;;;;;;-128.00;-1.00;-1.00;105615;1251;1003295;-80
2023/08/30 00:40:23;;;;;;;14.90;10.30;;;;;;;-128.00;-1.00;-1.00;105558;1251;1003807;-80
2023/08/30 00:42:50;;;;;;;17.80;11.00;;;;;;;-128.00;-1.00;-1.00;105489;1252;1045733;-80
2023/08/30 00:45:16;;;;;;;20.50;12.90;;;;;;;-128.00;-1.00;-1.00;105537;1252;1004691;-80
2023/08/30 00:47:43;;;;;;;21.20;13.10;;;;;;;-128.00;-1.00;-1.00;105572;1252;1004564;-80
2023/08/30 00:50:09;;;;;;;23.00;13.20;;;;;;;-128.00;-1.00;-1.00;105550;1252;1005772;-80
2023/08/30 00:52:36;;;;;;;21.00;13.90;;;;;;;-128.00;-1.00;-1.00;105586;1251;1004421;-80
2023/08/30 00:55:02;;;;;;;25.00;15.80;;;;;;;-128.00;-1.00;-1.00;105554;1251;1004348;-80
2023/08/30 00:57:30;;;;;;;24.90;15.40;;;;;;;-128.00;-1.00;-1.00;105622;1250;1004738;-80
2023/08/30 00:59:57;;;;;;;30.50;17.20;;;;;;;-128.00;-1.00;-1.00;105633;1251;1003777;-80
2023/08/30 01:02:24;;;;;;;28.40;16.70;;;;;;;-128.00;-1.00;-1.00;105438;1251;1003794;-80
2023/08/30 01:04:51;;;;;;;29.40;18.90;;;;;;;-128.00;-1.00;-1.00;105640;1250;1004217;-80
2023/08/30 01:07:19;;;;;;;28.90;17.90;;;;;;;-128.00;-1.00;-1.00;105494;1251;1004832;-79
2023/08/30 01:09:46;;;;;;;30.60;17.50;;;;;;;-128.00;-1.00;-1.00;105617;1251;1004095;-80
2023/08/30 01:12:30;;;;;;;31.00;18.00;;;;;;;-128.00;-1.00;-1.00;105449;1251;1005593;-79
2023/08/30 01:15:10;;;;;;;29.80;18.30;;;;;;;-128.00;-1.00;-1.00;105722;1251;1057420;-79
2023/08/30 01:17:38;;;;;;;31.90;18.30;;;;;;;-128.00;-1.00;-1.00;105540;1251;1059314;-79
2023/08/30 01:20:13;;;;;;;32.20;18.50;;;;;;;-128.00;-1.00;-1.00;105650;1250;1004346;-79
2023/08/30 01:22:58;;;;;;;32.10;19.80;;;;;;;-128.00;-1.00;-1.00;105615;1255;1046604;-79
2023/08/30 01:25:51;;;;;;;36.50;19.80;;;;;;;-128.00;-1.00;-1.00;105619;1250;1060927;-79
2023/08/30 01:28:20;;;;;;;33.80;19.80;;;;;;;-128.00;-1.00;-1.00;105609;1251;1058643;-80
2023/08/30 01:30:46;;;;;;;;;;;;;;;-128.00;-1.00;-1.00;105582;1251;1059860;-79
2023/08/30 01:33:14;;;;;;;32.50;21.30;;;;;;;-128.00;-1.00;-1.00;105490;1251;1003703;-80
2023/08/30 01:35:41;;;;;;;44.20;23.80;;;;;;;-128.00;-1.00;-1.00;105730;1251;1004551;-80
2023/08/30 01:38:08;;;;;;;40.80;23.00;;;;;;;-128.00;-1.00;-1.00;105535;1254;1004244;-80
2023/08/30 01:40:37;;;;;;;41.40;24.00;;;;;;;-128.00;-1.00;-1.00;105481;1252;1003433;-80
2023/08/30 01:43:07;;;;;;;41.40;25.60;;;;;;;-128.00;-1.00;-1.00;105604;1251;1003634;-80
2023/08/30 01:45:35;;;;;;;50.10;27.00;;;;;;;-128.00;-1.00;-1.00;105542;1251;1045692;-79
2023/08/30 01:48:02;;;;;;;52.80;27.70;;;;;;;-128.00;-1.00;-1.00;105579;1251;1004846;-80
2023/08/30 01:50:29;;;;;;;46.30;25.20;;;;;;;-128.00;-1.00;-1.00;105554;1251;1003228;-80
2023/08/30 01:52:56;;;;;;;49.80;26.70;;;;;;;-128.00;-1.00;-1.00;105543;1251;1004338;-79
2023/08/30 01:55:23;;;;;;;50.50;26.70;;;;;;;-128.00;-1.00;-1.00;105526;1251;1004458;-80
2023/08/30 01:57:49;;;;;;;50.30;26.10;;;;;;;-128.00;-1.00;-1.00;105508;1251;1004021;-80
2023/08/30 02:00:16;;;;;;;48.20;27.10;;;;;;;-128.00;-1.00;-1.00;105450;1250;1003738;-80
2023/08/30 02:02:42;;;;;;;48.60;25.60;;;;;;;-128.00;-1.00;-1.00;105623;1251;1003499;-80
2023/08/30 02:05:09;;;;;;;49.10;27.70;;;;;;;-128.00;-1.00;-1.00;105623;1251;1003860;-80
2023/08/30 02:08:00;;;;;;;47.30;26.20;;;;;;;-128.00;-1.00;-1.00;105588;1251;1004663;-80
2023/08/30 02:10:37;;;;;;;49.90;27.10;;;;;;;-128.00;-1.00;-1.00;105585;1251;1046947;-80
2023/08/30 02:13:04;;;;;;;48.10;25.90;;;;;;;-128.00;-1.00;-1.00;105639;1250;1047424;-80
2023/08/30 02:15:32;;;;;;;49.90;27.40;;;;;;;-128.00;-1.00;-1.00;105754;1251;1004101;-80
2023/08/30 02:17:59;;;;;;;49.60;30.50;;;;;;;-128.00;-1.00;-1.00;105542;1251;1004633;-80
2023/08/30 02:20:25;;;;;;;57.10;37.20;;;;;;;-128.00;-1.00;-1.00;105614;1251;1004192;-80
2023/08/30 02:22:52;;;;;;;53.30;29.20;;;;;;;-128.00;-1.00;-1.00;105613;1250;1003640;-80
2023/08/30 02:25:18;;;;;;;64.60;42.30;;;;;;;-128.00;-1.00;-1.00;105641;1251;1004140;-80
2023/08/30 02:27:47;;;;;;;;;;;;;;;-128.00;-1.00;-1.00;105633;1251;1061333;-80
2023/08/30 02:30:13;;;;;;;50.20;28.60;;;;;;;-128.00;-1.00;-1.00;105651;1251;1004469;-79
2023/08/30 02:32:40;;;;;;;40.40;25.10;;;;;;;-128.00;-1.00;-1.00;105591;1250;1003958;-80
2023/08/30 02:35:07;;;;;;;44.10;24.20;;;;;;;-128.00;-1.00;-1.00;105617;1251;1004969;-80
2023/08/30 02:37:33;;;;;;;44.90;24.40;;;;;;;-128.00;-1.00;-1.00;105583;1250;1004392;-80
2023/08/30 02:40:00;;;;;;;45.70;23.70;;;;;;;-128.00;-1.00;-1.00;105600;1251;1003618;-80
2023/08/30 02:42:27;;;;;;;47.90;24.60;;;;;;;-128.00;-1.00;-1.00;105624;1251;1005361;-80
2023/08/30 02:44:53;;;;;;;47.20;25.60;;;;;;;-128.00;-1.00;-1.00;105598;1251;1004704;-80
2023/08/30 02:47:20;;;;;;;46.30;26.10;;;;;;;-128.00;-1.00;-1.00;105610;1251;1004209;-80
2023/08/30 02:49:46;;;;;;;47.40;24.10;;;;;;;-128.00;-1.00;-1.00;105572;1252;1005062;-80
2023/08/30 02:52:13;;;;;;;42.60;22.20;;;;;;;-128.00;-1.00;-1.00;105553;1253;1004180;-80
2023/08/30 02:54:39;;;;;;;43.70;23.90;;;;;;;-128.00;-1.00;-1.00;105635;1251;1005211;-80
2023/08/30 02:57:06;;;;;;;40.10;22.10;;;;;;;-128.00;-1.00;-1.00;105575;1251;1005217;-80
2023/08/30 02:59:32;;;;;;;40.10;23.30;;;;;;;-128.00;-1.00;-1.00;105630;1250;1004277;-80
2023/08/30 03:01:59;;;;;;;35.00;20.20;;;;;;;-128.00;-1.00;-1.00;105627;1251;1004687;-80
2023/08/30 03:04:25;;;;;;;39.20;23.80;;;;;;;-128.00;-1.00;-1.00;105703;1255;1004837;-80
2023/08/30 03:06:52;;;;;;;32.30;20.50;;;;;;;-128.00;-1.00;-1.00;105712;1251;1004506;-80
2023/08/30 03:09:18;;;;;;;31.50;19.30;;;;;;;-128.00;-1.00;-1.00;105607;1251;1004747;-80
2023/08/30 03:11:45;;;;;;;29.40;18.20;;;;;;;-128.00;-1.00;-1.00;105595;1251;1004743;-80
2023/08/30 03:14:11;;;;;;;28.40;18.40;;;;;;;-128.00;-1.00;-1.00;105628;1251;1004548;-80
2023/08/30 03:16:38;;;;;;;25.20;16.90;;;;;;;-128.00;-1.00;-1.00;105611;1251;1004059;-80
2023/08/30 03:19:04;;;;;;;30.80;17.20;;;;;;;-128.00;-1.00;-1.00;105612;1250;1005301;-80
2023/08/30 03:21:31;;;;;;;28.30;16.30;;;;;;;-128.00;-1.00;-1.00;105582;1251;1005161;-80
2023/08/30 03:23:57;;;;;;;27.90;17.30;;;;;;;-128.00;-1.00;-1.00;105606;1251;1004377;-79
2023/08/30 03:26:24;;;;;;;25.00;16.60;;;;;;;-128.00;-1.00;-1.00;105621;1251;1004077;-79
2023/08/30 03:28:50;;;;;;;29.20;17.60;;;;;;;-128.00;-1.00;-1.00;105618;1251;1005120;-81
2023/08/30 03:31:18;;;;;;;26.90;17.50;;;;;;;-128.00;-1.00;-1.00;105621;1251;1003598;-80
2023/08/30 03:33:44;;;;;;;29.70;18.10;;;;;;;-128.00;-1.00;-1.00;105617;1251;1004334;-79
2023/08/30 03:36:11;;;;;;;27.70;16.00;;;;;;;-128.00;-1.00;-1.00;105604;1251;1005372;-79
2023/08/30 03:38:38;;;;;;;34.60;18.90;;;;;;;-128.00;-1.00;-1.00;105596;1251;1003408;-79
2023/08/30 03:41:05;;;;;;;26.40;15.80;;;;;;;-128.00;-1.00;-1.00;105591;1251;1004946;-80
2023/08/30 03:43:32;;;;;;;32.10;18.00;;;;;;;-128.00;-1.00;-1.00;105514;1251;1004325;-81
2023/08/30 03:45:59;;;;;;;32.10;18.60;;;;;;;-128.00;-1.00;-1.00;105595;1251;1004657;-80
2023/08/30 03:48:26;;;;;;;30.40;17.90;;;;;;;-128.00;-1.00;-1.00;105554;1251;1004077;-80
2023/08/30 03:50:54;;;;;;;31.40;18.80;;;;;;;-128.00;-1.00;-1.00;105607;1251;1004207;-80
2023/08/30 03:53:21;;;;;;;32.20;18.50;;;;;;;-128.00;-1.00;-1.00;105597;1251;1003703;-80
2023/08/30 03:55:47;;;;;;;30.30;19.10;;;;;;;-128.00;-1.00;-1.00;105626;1251;1004530;-80
2023/08/30 03:58:15;;;;;;;35.00;20.70;;;;;;;-128.00;-1.00;-1.00;105660;1251;1003443;-79
2023/08/30 04:00:41;;;;;;;35.40;20.10;;;;;;;-128.00;-1.00;-1.00;105593;1251;1004596;-80
2023/08/30 04:03:09;;;;;;;36.70;21.20;;;;;;;-128.00;-1.00;-1.00;105629;1255;1003775;-79
2023/08/30 04:05:36;;;;;;;33.40;19.70;;;;;;;-128.00;-1.00;-1.00;105674;1251;1003606;-80
2023/08/30 04:08:04;;;;;;;35.60;19.80;;;;;;;-128.00;-1.00;-1.00;105756;1255;1004315;-80
2023/08/30 04:10:37;;;;;;;35.60;20.00;;;;;;;-128.00;-1.00;-1.00;105736;1251;1004475;-80
2023/08/30 04:13:04;;;;;;;37.40;20.60;;;;;;;-128.00;-1.00;-1.00;105657;1251;1047173;-80
2023/08/30 04:15:37;;;;;;;37.70;20.20;;;;;;;-128.00;-1.00;-1.00;105812;1251;1004605;-80
2023/08/30 04:18:04;;;;;;;39.40;19.80;;;;;;;-128.00;-1.00;-1.00;105798;1251;1061772;-81
2023/08/30 04:20:32;;;;;;;43.40;21.00;;;;;;;-128.00;-1.00;-1.00;105761;1251;1003686;-80
2023/08/30 04:23:01;;;;;;;40.80;20.50;;;;;;;-128.00;-1.00;-1.00;105627;1251;1003326;-80
2023/08/30 04:25:28;;;;;;;39.10;22.10;;;;;;;-128.00;-1.00;-1.00;105596;1251;1046516;-80
2023/08/30 04:27:55;;;;;;;37.30;21.10;;;;;;;-128.00;-1.00;-1.00;105520;1251;1003373;-80
2023/08/30 04:30:22;;;;;;;41.60;22.60;;;;;;;-128.00;-1.00;-1.00;105641;1251;1004531;-80
2023/08/30 04:32:48;;;;;;;40.80;23.50;;;;;;;-128.00;-1.00;-1.00;105638;1251;1004751;-80
2023/08/30 04:35:15;;;;;;;41.70;24.30;;;;;;;-128.00;-1.00;-1.00;105604;1250;1004455;-80
2023/08/30 04:37:42;;;;;;;42.60;22.60;;;;;;;-128.00;-1.00;-1.00;105639;1251;1004012;-80
2023/08/30 04:40:09;;;;;;;46.70;25.10;;;;;;;-128.00;-1.00;-1.00;105640;1251;1003990;-80
2023/08/30 04:42:36;;;;;;;51.40;29.70;;;;;;;-128.00;-1.00;-1.00;105556;1251;1004624;-80
2023/08/30 04:45:03;;;;;;;48.90;26.80;;;;;;;-128.00;-1.00;-1.00;105610;1251;1004598;-80
2023/08/30 04:47:30;;;;;;;42.20;24.40;;;;;;;-128.00;-1.00;-1.00;105591;1251;1003743;-80
2023/08/30 04:49:56;;;;;;;41.50;22.20;;;;;;;-128.00;-1.00;-1.00;105574;1251;1003803;-80
2023/08/30 04:52:23;;;;;;;41.50;22.90;;;;;;;-128.00;-1.00;-1.00;105593;1251;1003699;-79
2023/08/30 04:54:50;;;;;;;38.20;20.10;;;;;;;-128.00;-1.00;-1.00;105620;1251;1004966;-80
2023/08/30 04:57:17;;;;;;;40.60;20.50;;;;;;;-128.00;-1.00;-1.00;105626;1250;1004019;-80
2023/08/30 04:59:44;;;;;;;34.20;18.20;;;;;;;-128.00;-1.00;-1.00;105405;1251;1003958;-80
2023/08/30 05:02:10;;;;;;;38.30;21.30;;;;;;;-128.00;-1.00;-1.00;105485;1251;1005395;-80
2023/08/30 05:04:37;;;;;;;41.60;21.50;;;;;;;-128.00;-1.00;-1.00;105565;1251;1004357;-80
2023/08/30 05:07:04;;;;;;;38.20;21.30;;;;;;;-128.00;-1.00;-1.00;105427;1251;1003955;-80
2023/08/30 05:09:32;;;;;;;40.90;21.90;;;;;;;-128.00;-1.00;-1.00;105455;1251;1004106;-80
2023/08/30 05:11:58;;;;;;;39.90;20.80;;;;;;;-128.00;-1.00;-1.00;105508;1251;1004412;-79
2023/08/30 05:14:25;;;;;;;44.30;22.10;;;;;;;-128.00;-1.00;-1.00;105741;1251;1004418;-80
2023/08/30 05:16:52;;;;;;;35.20;18.10;;;;;;;-128.00;-1.00;-1.00;105761;1251;1005744;-80
2023/08/30 05:19:19;;;;;;;41.40;21.30;;;;;;;-128.00;-1.00;-1.00;105537;1253;1004262;-79
2023/08/30 05:21:45;;;;;;;47.40;22.80;;;;;;;-128.00;-1.00;-1.00;105534;1251;1004416;-80
2023/08/30 05:24:12;;;;;;;39.70;20.50;;;;;;;-128.00;-1.00;-1.00;105354;1252;1004127;-80
2023/08/30 05:26:38;;;;;;;43.40;21.20;;;;;;;-128.00;-1.00;-1.00;105537;1251;1004728;-79
2023/08/30 05:29:05;;;;;;;42.30;24.30;;;;;;;-128.00;-1.00;-1.00;105540;1251;1004320;-80
2023/08/30 05:31:31;;;;;;;33.70;18.50;;;;;;;-128.00;-1.00;-1.00;105530;1251;1004813;-80
2023/08/30 05:33:58;;;;;;;38.30;18.80;;;;;;;-128.00;-1.00;-1.00;105529;1251;1004934;-80
2023/08/30 05:36:24;;;;;;;31.10;19.00;;;;;;;-128.00;-1.00;-1.00;105519;1251;1004440;-79
2023/08/30 05:38:51;;;;;;;35.90;18.90;;;;;;;-128.00;-1.00;-1.00;105569;1254;1003926;-81
2023/08/30 05:41:17;;;;;;;37.20;19.30;;;;;;;-128.00;-1.00;-1.00;105552;1253;1004226;-80
2023/08/30 05:43:44;;;;;;;35.00;17.80;;;;;;;-128.00;-1.00;-1.00;105651;1253;1004428;-79
2023/08/30 05:46:14;;;;;;;41.20;18.80;;;;;;;-128.00;-1.00;-1.00;105785;1251;1004151;-80
2023/08/30 05:48:41;;;;;;;35.60;20.10;;;;;;;-128.00;-1.00;-1.00;105785;1251;1059317;-79
2023/08/30 05:51:07;;;;;;;33.20;19.50;;;;;;;-128.00;-1.00;-1.00;105747;1251;1004125;-80
2023/08/30 05:53:34;;;;;;;33.40;20.20;;;;;;;-128.00;-1.00;-1.00;105579;1251;1003987;-80
2023/08/30 05:56:00;;;;;;;40.40;21.60;;;;;;;-128.00;-1.00;-1.00;105677;1253;1005021;-80
2023/08/30 05:58:26;;;;;;;33.60;18.50;;;;;;;-128.00;-1.00;-1.00;105708;1251;1004497;-80
2023/08/30 06:00:53;;;;;;;36.30;22.40;;;;;;;-128.00;-1.00;-1.00;105641;1252;1004199;-79
2023/08/30 06:03:19;;;;;;;40.20;22.80;;;;;;;-128.00;-1.00;-1.00;105596;1254;1004860;-81
2023/08/30 06:05:48;;;;;;;32.50;20.50;;;;;;;-128.00;-1.00;-1.00;105607;1251;1004496;-79
2023/08/30 06:08:15;;;;;;;;;;;;;;;-128.00;-1.00;-1.00;105725;1252;1061722;-79
2023/08/30 06:10:41;;;;;;;38.80;21.30;;;;;;;-128.00;-1.00;-1.00;105564;1251;1003819;-80
2023/08/30 06:13:08;;;;;;;30.10;17.60;;;;;;;-128.00;-1.00;-1.00;105571;1251;1004796;-80
2023/08/30 06:15:37;;;;;;;24.30;14.00;;;;;;;-128.00;-1.00;-1.00;105563;1251;1003514;-80
2023/08/30 06:18:03;;;;;;;19.60;13.40;;;;;;;-128.00;-1.00;-1.00;105582;1251;1049385;-80
2023/08/30 06:20:30;;;;;;;19.30;12.80;;;;;;;-128.00;-1.00;-1.00;105570;1251;1004368;-80
2023/08/30 06:22:57;;;;;;;17.50;10.80;;;;;;;-128.00;-1.00;-1.00;105627;1251;1004695;-80
2023/08/30 06:25:24;;;;;;;17.80;9.80;;;;;;;-128.00;-1.00;-1.00;105576;1251;1004865;-80
2023/08/30 06:27:58;;;;;;;13.30;8.40;;;;;;;-128.00;-1.00;-1.00;105588;1251;1004532;-79
2023/08/30 06:30:25;;;;;;;15.30;9.60;;;;;;;-128.00;-1.00;-1.00;105693;1251;1047478;-80
2023/08/30 06:32:52;;;;;;;11.70;7.50;;;;;;;-128.00;-1.00;-1.00;105584;1251;1004359;-80
2023/08/30 06:35:18;;;;;;;12.50;8.10;;;;;;;-128.00;-1.00;-1.00;105730;1256;1004479;-81
2023/08/30 06:37:45;;;;;;;13.00;7.30;;;;;;;-128.00;-1.00;-1.00;105739;1251;1004625;-80
2023/08/30 06:40:12;;;;;;;12.50;8.30;;;;;;;-128.00;-1.00;-1.00;105684;1255;1004020;-80
2023/08/30 06:42:38;;;;;;;13.00;8.60;;;;;;;-128.00;-1.00;-1.00;105725;1252;1004576;-80
2023/08/30 06:45:06;;;;;;;12.20;8.60;;;;;;;-128.00;-1.00;-1.00;105675;1254;1003927;-80
2023/08/30 06:47:32;;;;;;;11.60;7.50;;;;;;;-128.00;-1.00;-1.00;105515;1251;1004066;-80
2023/08/30 06:49:59;;;;;;;12.40;8.70;;;;;;;-128.00;-1.00;-1.00;105646;1251;1005530;-80
2023/08/30 06:52:26;;;;;;;12.10;7.70;;;;;;;-128.00;-1.00;-1.00;105689;1251;1004031;-80
2023/08/30 06:54:52;;;;;;;11.90;8.30;;;;;;;-128.00;-1.00;-1.00;105723;1250;1004097;-80
2023/08/30 06:57:19;;;;;;;11.70;8.00;;;;;;;-128.00;-1.00;-1.00;105627;1254;1005667;-80
2023/08/30 06:59:46;;;;;;;12.80;8.30;;;;;;;-128.00;-1.00;-1.00;105758;1252;1004197;-80
2023/08/30 07:02:13;;;;;;;13.00;9.10;;;;;;;-128.00;-1.00;-1.00;105764;1251;1004182;-80
2023/08/30 07:04:40;;;;;;;11.80;8.30;;;;;;;-128.00;-1.00;-1.00;105661;1251;1004482;-80
2023/08/30 07:07:06;;;;;;;10.60;7.30;;;;;;;-128.00;-1.00;-1.00;105738;1251;1003673;-79
2023/08/30 07:09:33;;;;;;;9.40;6.20;;;;;;;-128.00;-1.00;-1.00;105706;1254;1004816;-80
2023/08/30 07:11:59;;;;;;;8.30;5.90;;;;;;;-128.00;-1.00;-1.00;105629;1254;1003868;-79
2023/08/30 07:14:26;;;;;;;9.30;6.20;;;;;;;-128.00;-1.00;-1.00;105616;1251;1004867;-80
2023/08/30 07:16:52;;;;;;;10.60;5.80;;;;;;;-128.00;-1.00;-1.00;105550;1250;1003543;-80
2023/08/30 07:19:19;;;;;;;9.40;5.50;;;;;;;-128.00;-1.00;-1.00;105615;1250;1003892;-80
2023/08/30 07:21:45;;;;;;;9.60;5.90;;;;;;;-128.00;-1.00;-1.00;105569;1251;1004679;-80
2023/08/30 07:24:11;;;;;;;10.30;6.60;;;;;;;-128.00;-1.00;-1.00;105528;1255;1003216;-79
2023/08/30 07:26:38;;;;;;;9.70;6.20;;;;;;;-128.00;-1.00;-1.00;105568;1255;1004563;-80
2023/08/30 07:29:05;;;;;;;10.10;5.90;;;;;;;-128.00;-1.00;-1.00;105571;1253;1004946;-79
2023/08/30 07:31:32;;;;;;;8.40;5.90;;;;;;;-128.00;-1.00;-1.00;105547;1251;1004646;-80
2023/08/30 07:33:59;;;;;;;7.70;5.20;;;;;;;-128.00;-1.00;-1.00;105566;1251;1004635;-79
2023/08/30 07:36:27;;;;;;;10.30;5.90;;;;;;;-128.00;-1.00;-1.00;105541;1250;1004610;-80
2023/08/30 07:38:55;;;;;;;7.10;4.50;;;;;;;-128.00;-1.00;-1.00;105619;1251;1060071;-79
2023/08/30 07:41:21;;;;;;;8.10;5.00;;;;;;;-128.00;-1.00;-1.00;105551;1251;1004069;-80
2023/08/30 07:43:48;;;;;;;6.40;4.70;;;;;;;-128.00;-1.00;-1.00;105555;1251;1003778;-80
2023/08/30 07:46:14;;;;;;;8.80;5.90;;;;;;;-128.00;-1.00;-1.00;105552;1251;1004133;-80
2023/08/30 07:48:41;;;;;;;6.60;4.10;;;;;;;-128.00;-1.00;-1.00;105542;1251;1004560;-80
2023/08/30 07:51:07;;;;;;;8.80;5.40;;;;;;;-128.00;-1.00;-1.00;105430;1254;1004421;-80
2023/08/30 07:53:34;;;;;;;10.40;5.30;;;;;;;-128.00;-1.00;-1.00;105561;1251;1003759;-80
2023/08/30 07:56:00;;;;;;;10.10;4.90;;;;;;;-128.00;-1.00;-1.00;105547;1251;1004130;-80
2023/08/30 07:58:27;;;;;;;17.60;10.00;;;;;;;-128.00;-1.00;-1.00;105615;1256;1003657;-80
2023/08/30 08:00:53;;;;;;;12.50;7.10;;;;;;;-128.00;-1.00;-1.00;105568;1251;1004423;-80
2023/08/30 08:03:23;;;;;;;35.30;13.50;;;;;;;-128.00;-1.00;-1.00;105420;1254;1003972;-80
2023/08/30 08:05:49;;;;;;;14.10;6.80;;;;;;;-128.00;-1.00;-1.00;105478;1252;1047048;-79
2023/08/30 08:08:16;;;;;;;13.60;6.40;;;;;;;-128.00;-1.00;-1.00;105489;1256;1004315;-79
2023/08/30 08:10:43;;;;;;;16.10;7.30;;;;;;;-128.00;-1.00;-1.00;105545;1253;1005933;-80
2023/08/30 08:13:10;;;;;;;14.60;6.90;;;;;;;-128.00;-1.00;-1.00;105508;1251;1004490;-80
2023/08/30 08:15:36;;;;;;;15.00;9.70;;;;;;;-128.00;-1.00;-1.00;105456;1254;1004000;-80
2023/08/30 08:18:03;;;;;;;17.30;11.60;;;;;;;-128.00;-1.00;-1.00;105437;1256;1004652;-80
2023/08/30 08:20:30;;;;;;;16.20;8.00;;;;;;;-128.00;-1.00;-1.00;105525;1251;1003911;-80
2023/08/30 08:22:56;;;;;;;10.50;5.30;;;;;;;-128.00;-1.00;-1.00;105549;1252;1004338;-80
2023/08/30 08:25:23;;;;;;;11.30;5.40;;;;;;;-128.00;-1.00;-1.00;105534;1251;1004711;-79
2023/08/30 08:27:51;;;;;;;10.50;5.20;;;;;;;-128.00;-1.00;-1.00;105535;1251;1003909;-80
2023/08/30 08:30:17;;;;;;;8.00;5.50;;;;;;;-128.00;-1.00;-1.00;105571;1251;1004203;-80
2023/08/30 08:32:45;;;;;;;8.70;4.90;;;;;;;-128.00;-1.00;-1.00;105565;1251;1003863;-81
2023/08/30 08:35:11;;;;;;;10.50;5.90;;;;;;;-128.00;-1.00;-1.00;105574;1254;1004071;-80
2023/08/30 08:37:38;;;;;;;10.30;5.50;;;;;;;-128.00;-1.00;-1.00;105513;1251;1004456;-80
2023/08/30 08:40:08;;;;;;;11.30;5.90;;;;;;;-128.00;-1.00;-1.00;105485;1255;1005066;-80
2023/08/30 08:42:35;;;;;;;9.10;5.30;;;;;;;-128.00;-1.00;-1.00;105511;1251;1045442;-79
2023/08/30 08:45:03;;;;;;;11.00;6.60;;;;;;;-128.00;-1.00;-1.00;105536;1251;1005339;-80
2023/08/30 08:47:32;;;;;;;25.20;12.20;;;;;;;-128.00;-1.00;-1.00;105552;1251;1006210;-79
2023/08/30 08:50:00;;;;;;;19.80;10.20;;;;;;;-128.00;-1.00;-1.00;105476;1251;1058239;-80
2023/08/30 08:52:27;;;;;;;12.80;6.40;;;;;;;-128.00;-1.00;-1.00;105466;1251;1004389;-79
2023/08/30 08:54:54;;;;;;;13.70;6.70;;;;;;;-128.00;-1.00;-1.00;105550;1251;1004581;-79
2023/08/30 08:57:21;;;;;;;12.40;7.50;;;;;;;-128.00;-1.00;-1.00;105430;1251;1004403;-80
2023/08/30 08:59:47;;;;;;;20.70;10.70;;;;;;;-128.00;-1.00;-1.00;105714;1251;1003902;-80
2023/08/30 09:02:14;;;;;;;14.20;7.80;;;;;;;-128.00;-1.00;-1.00;105456;1256;1004731;-80
2023/08/30 09:04:41;;;;;;;8.40;6.40;;;;;;;-128.00;-1.00;-1.00;105517;1252;1005078;-79
2023/08/30 09:07:07;;;;;;;9.20;5.20;;;;;;;-128.00;-1.00;-1.00;105445;1251;1003565;-80
2023/08/30 09:09:34;;;;;;;7.90;5.60;;;;;;;-128.00;-1.00;-1.00;105575;1251;1004665;-79
2023/08/30 09:12:00;;;;;;;10.10;4.50;;;;;;;-128.00;-1.00;-1.00;105563;1251;1004163;-80
2023/08/30 09:14:27;;;;;;;12.40;6.70;;;;;;;-128.00;-1.00;-1.00;105601;1251;1004849;-79
2023/08/30 09:17:02;;;;;;;11.90;6.80;;;;;;;-128.00;-1.00;-1.00;105649;1251;1004824;-80
2023/08/30 09:19:29;;;;;;;9.30;6.00;;;;;;;-128.00;-1.00;-1.00;105555;1256;1046250;-79
2023/08/30 09:21:57;;;;;;;13.70;6.30;;;;;;;-128.00;-1.00;-1.00;105533;1251;1003441;-80
2023/08/30 09:24:24;;;;;;;11.10;5.40;;;;;;;-128.00;-1.00;-1.00;105554;1253;1003297;-80
2023/08/30 09:26:52;;;;;;;6.40;4.90;;;;;;;-128.00;-1.00;-1.00;105561;1251;1006035;-79
2023/08/30 09:29:20;;;;;;;6.70;4.50;;;;;;;-128.00;-1.00;-1.00;105581;1251;1003834;-80
2023/08/30 09:31:50;;;;;;;14.60;5.40;;;;;;;-128.00;-1.00;-1.00;105580;1251;1004053;-80
2023/08/30 09:34:16;;;;;;;9.40;5.90;;;;;;;-128.00;-1.00;-1.00;105482;1251;1048339;-80
2023/08/30 09:36:43;;;;;;;11.10;6.40;;;;;;;-128.00;-1.00;-1.00;105518;1251;1004084;-80
2023/08/30 09:39:13;;;;;;;8.80;6.40;;;;;;;-128.00;-1.00;-1.00;105547;1251;1004662;-80
2023/08/30 09:41:44;;;;;;;8.90;5.20;;;;;;;-128.00;-1.00;-1.00;105704;1251;1059189;-80
2023/08/30 09:44:11;;;;;;;9.90;6.20;;;;;;;-128.00;-1.00;-1.00;105747;1251;1045844;-80
2023/08/30 09:46:45;;;;;;;9.70;5.70;;;;;;;-128.00;-1.00;-1.00;105761;1251;1003762;-80
2023/08/30 09:49:11;;;;;;;13.50;7.00;;;;;;;-128.00;-1.00;-1.00;105725;1251;1061067;-80
2023/08/30 09:51:42;;;;;;;12.50;7.20;;;;;;;-128.00;-1.00;-1.00;105644;1251;1003859;-80
2023/08/30 09:54:16;;;;;;;9.50;6.20;;;;;;;-128.00;-1.00;-1.00;105510;1253;1059085;-80
2023/08/30 09:56:44;;;;;;;9.60;6.50;;;;;;;-128.00;-1.00;-1.00;105511;1251;1046634;-80
2023/08/30 09:59:11;;;;;;;9.60;6.60;;;;;;;-128.00;-1.00;-1.00;105522;1251;1005027;-79
2023/08/30 10:01:39;;;;;;;11.00;8.20;;;;;;;-128.00;-1.00;-1.00;105569;1251;1003711;-80
2023/08/30 10:04:07;;;;;;;9.00;7.20;;;;;;;-128.00;-1.00;-1.00;105467;1251;1004567;-81
2023/08/30 10:06:33;;;;;;;11.70;7.50;;;;;;;-128.00;-1.00;-1.00;105629;1251;1005101;-80
2023/08/30 10:09:00;;;;;;;11.90;8.30;;;;;;;-128.00;-1.00;-1.00;105669;1251;1003368;-80
2023/08/30 10:11:26;;;;;;;11.00;7.20;;;;;;;-128.00;-1.00;-1.00;105582;1251;1004063;-79
2023/08/30 10:13:53;;;;;;;10.50;7.50;;;;;;;-128.00;-1.00;-1.00;105397;1256;1003705;-75
2023/08/30 10:16:22;;;;;;;12.10;7.90;;;;;;;-128.00;-1.00;-1.00;105428;1253;1004014;-74
2023/08/30 10:18:50;;;;;;;12.30;7.80;;;;;;;-128.00;-1.00;-1.00;105487;1251;1059383;-84
2023/08/30 10:21:17;;;;;;;14.60;7.40;;;;;;;-128.00;-1.00;-1.00;105602;1251;1004023;-80
2023/08/30 10:23:43;;;;;;;10.80;8.00;;;;;;;-128.00;-1.00;-1.00;105396;1251;1005090;-79
2023/08/30 10:26:10;;;;;;;10.80;6.90;;;;;;;-128.00;-1.00;-1.00;105421;1255;1004749;-82
2023/08/30 10:28:36;;;;;;;9.70;6.70;;;;;;;-128.00;-1.00;-1.00;105406;1251;1004188;-81
2023/08/30 10:31:03;;;;;;;9.80;7.60;;;;;;;-128.00;-1.00;-1.00;105437;1251;1004807;-80
2023/08/30 10:33:29;;;;;;;10.90;7.30;;;;;;;-128.00;-1.00;-1.00;105455;1251;1003767;-80
2023/08/30 10:36:04;;;;;;;15.80;9.10;;;;;;;-128.00;-1.00;-1.00;105577;1251;1004161;-80
2023/08/30 10:38:32;;;;;;;14.30;7.60;;;;;;;-128.00;-1.00;-1.00;105558;1251;1061722;-80
2023/08/30 10:41:08;;;;;;;14.40;9.10;;;;;;;-128.00;-1.00;-1.00;105502;1251;1004364;-79
2023/08/30 10:43:35;;;;;;;14.00;8.60;;;;;;;-128.00;-1.00;-1.00;105456;1251;1058715;-81
2023/08/30 10:46:02;;;;;;;13.20;8.10;;;;;;;-128.00;-1.00;-1.00;105337;1251;1004309;-80
2023/08/30 10:48:39;;;;;;;21.20;11.10;;;;;;;-128.00;-1.00;-1.00;105667;1251;1004073;-80
2023/08/30 10:51:17;;;;;;;16.20;9.50;;;;;;;-128.00;-1.00;-1.00;105515;1250;1062640;-80
2023/08/30 10:53:43;;;;;;;13.30;8.00;;;;;;;-128.00;-1.00;-1.00;105562;1250;1058160;-80
2023/08/30 10:56:10;;;;;;;12.50;7.00;;;;;;;-128.00;-1.00;-1.00;105465;1251;1003894;-80
2023/08/30 10:58:43;;;;;;;15.80;8.30;;;;;;;-128.00;-1.00;-1.00;105428;1254;1003496;-80
2023/08/30 11:01:13;;;;;;;20.40;11.90;;;;;;;-128.00;-1.00;-1.00;105546;1251;1048353;-80
2023/08/30 11:03:40;;;;;;;21.00;13.20;;;;;;;-128.00;-1.00;-1.00;105587;1251;1061929;-80
2023/08/30 11:06:07;;;;;;;21.30;11.50;;;;;;;-128.00;-1.00;-1.00;105493;1254;1004532;-80
2023/08/30 11:08:35;;;;;;;15.70;10.10;;;;;;;-128.00;-1.00;-1.00;105614;1250;1004481;-79